createdAt,value
2022-09-22T00:01:09.196Z,2.80
2022-09-22T00:03:38.201Z,2.75
2022-09-22T00:06:10.526Z,2.67
2022-09-22T00:08:39.088Z,3.33
2022-09-22T00:11:16.809Z,3.50
2022-09-22T00:13:48.847Z,3.28
2022-09-22T00:16:15.795Z,2.88
2022-09-22T00:18:42.478Z,2.70
2022-09-22T00:21:12.609Z,2.60
2022-09-22T00:23:41.114Z,2.50
2022-09-22T00:26:10.891Z,2.30
2022-09-22T00:28:38.523Z,2.60
2022-09-22T00:31:11.552Z,2.42
2022-09-22T00:33:39.311Z,2.60
2022-09-22T00:36:05.737Z,2.17
2022-09-22T00:38:33.465Z,2.50
2022-09-22T00:41:01.422Z,2.45
2022-09-22T00:43:30.288Z,2.25
2022-09-22T00:46:08.217Z,2.70
2022-09-22T00:48:39.445Z,2.90
2022-09-22T00:51:09.238Z,2.60
2022-09-22T00:53:35.981Z,2.65
2022-09-22T00:56:13.272Z,2.65
2022-09-22T00:58:44.900Z,2.47
2022-09-22T01:01:11.418Z,2.63
2022-09-22T01:03:40.965Z,2.58
2022-09-22T01:06:12.023Z,2.60
2022-09-22T01:08:40.063Z,2.70
2022-09-22T01:11:08.070Z,2.50
2022-09-22T01:13:58.167Z,2.88
2022-09-22T01:16:46.303Z,2.58
2022-09-22T01:19:35.878Z,2.70
2022-09-22T01:22:36.431Z,2.70
2022-09-22T01:25:43.057Z,2.50
2022-09-22T01:28:35.634Z,2.35
2022-09-22T01:31:16.980Z,2.70
2022-09-22T01:33:52.149Z,2.63
2022-09-22T01:36:41.644Z,2.65
2022-09-22T01:39:13.816Z,3.20
2022-09-22T01:41:47.451Z,2.42
2022-09-22T01:44:58.816Z,2.63
2022-09-22T01:47:53.387Z,2.60
2022-09-22T01:50:33.161Z,2.70
2022-09-22T01:53:03.679Z,2.80
2022-09-22T01:55:38.501Z,2.70
2022-09-22T01:58:11.960Z,2.28
2022-09-22T02:00:41.985Z,2.60
2022-09-22T02:03:21.258Z,2.67
2022-09-22T02:05:58.396Z,2.60
2022-09-22T02:08:32.498Z,2.33
2022-09-22T02:11:07.673Z,2.50
2022-09-22T02:13:34.088Z,2.72
2022-09-22T02:16:00.739Z,2.78
2022-09-22T02:18:42.027Z,2.80
2022-09-22T02:21:09.059Z,2.50
2022-09-22T02:23:36.006Z,2.65
2022-09-22T02:26:05.003Z,2.45
2022-09-22T02:28:34.127Z,2.72
2022-09-22T02:31:19.648Z,3.17
2022-09-22T02:33:47.157Z,2.50
2022-09-22T02:36:42.175Z,2.63
2022-09-22T02:39:24.427Z,2.38
2022-09-22T02:42:15.155Z,2.90
2022-09-22T02:45:06.447Z,2.23
2022-09-22T02:47:57.355Z,2.50
2022-09-22T02:50:28.735Z,2.60
2022-09-22T02:53:12.272Z,2.45
2022-09-22T02:55:39.088Z,2.83
2022-09-22T02:58:05.560Z,3.53
2022-09-22T03:00:33.012Z,2.95
2022-09-22T03:02:59.988Z,2.83
2022-09-22T03:05:26.420Z,2.67
2022-09-22T03:07:52.777Z,2.50
2022-09-22T03:10:19.466Z,2.40
2022-09-22T03:13:09.199Z,2.50
2022-09-22T03:15:32.407Z,2.63
2022-09-22T03:17:59.108Z,2.70
2022-09-22T03:20:25.718Z,2.70
2022-09-22T03:22:52.224Z,2.70
2022-09-22T03:25:18.828Z,2.40
2022-09-22T03:27:45.243Z,2.30
2022-09-22T03:30:12.092Z,2.47
2022-09-22T03:32:38.649Z,2.58
2022-09-22T03:35:06.653Z,2.63
2022-09-22T03:37:34.428Z,2.38
2022-09-22T03:40:01.363Z,2.97
2022-09-22T03:42:27.811Z,3.03
2022-09-22T03:44:54.211Z,2.92
2022-09-22T03:47:20.599Z,2.70
2022-09-22T03:49:47.102Z,2.80
2022-09-22T03:52:13.498Z,2.70
2022-09-22T03:54:39.875Z,2.60
2022-09-22T03:57:06.370Z,2.42
2022-09-22T03:59:33.006Z,2.60
2022-09-22T04:02:00.942Z,2.40
2022-09-22T04:04:27.463Z,2.60
2022-09-22T04:06:53.825Z,2.53
2022-09-22T04:09:20.565Z,2.80
2022-09-22T04:11:47.026Z,2.50
2022-09-22T04:14:13.379Z,2.60
2022-09-22T04:16:43.090Z,3.88
2022-09-22T04:19:10.245Z,2.70
2022-09-22T04:21:36.733Z,2.67
2022-09-22T04:24:03.411Z,2.90
2022-09-22T04:26:29.853Z,2.85
2022-09-22T04:28:56.287Z,2.33
2022-09-22T04:31:23.070Z,2.50
2022-09-22T04:33:49.513Z,2.70
2022-09-22T04:36:15.998Z,2.80
2022-09-22T04:38:42.498Z,3.38
2022-09-22T04:41:08.861Z,2.88
2022-09-22T04:43:35.253Z,2.90
2022-09-22T04:46:01.848Z,2.55
2022-09-22T04:48:28.660Z,3.10
2022-09-22T04:50:55.088Z,2.78
2022-09-22T04:53:21.515Z,2.70
2022-09-22T04:55:49.747Z,2.67
2022-09-22T04:58:16.223Z,3.05
2022-09-22T05:00:42.645Z,4.10
2022-09-22T05:03:10.923Z,2.47
2022-09-22T05:05:38.439Z,2.58
2022-09-22T05:08:05.247Z,2.50
2022-09-22T05:10:34.329Z,2.40
2022-09-22T05:13:00.764Z,2.37
2022-09-22T05:15:27.237Z,2.33
2022-09-22T05:17:55.147Z,2.38
2022-09-22T05:20:21.588Z,2.20
2022-09-22T05:22:48.385Z,2.58
2022-09-22T05:25:19.189Z,2.40
2022-09-22T05:27:50.893Z,2.50
2022-09-22T05:30:18.903Z,3.42
2022-09-22T05:32:47.331Z,3.95
2022-09-22T05:35:15.779Z,2.70
2022-09-22T05:37:49.838Z,2.60
2022-09-22T05:40:17.446Z,2.10
2022-09-22T05:42:46.380Z,1.92
2022-09-22T05:45:13.510Z,2.13
2022-09-22T05:47:40.570Z,1.92
2022-09-22T05:50:08.277Z,1.90
2022-09-22T05:52:35.054Z,1.90
2022-09-22T05:55:02.015Z,1.70
2022-09-22T05:57:28.572Z,3.53
2022-09-22T05:59:55.241Z,5.88
2022-09-22T06:02:26.404Z,2.47
2022-09-22T06:04:53.709Z,1.80
2022-09-22T06:07:21.422Z,1.60
2022-09-22T06:09:48.459Z,1.60
2022-09-22T06:12:15.961Z,1.90
2022-09-22T06:14:42.754Z,1.70
2022-09-22T06:17:12.376Z,2.10
2022-09-22T06:19:39.591Z,1.55
2022-09-22T06:22:06.709Z,1.70
2022-09-22T06:24:33.158Z,1.70
2022-09-22T06:26:59.648Z,2.00
2022-09-22T06:29:26.794Z,1.70
2022-09-22T06:31:53.265Z,1.77
2022-09-22T06:34:19.870Z,1.73
2022-09-22T06:36:46.320Z,1.92
2022-09-22T06:39:13.088Z,1.87
2022-09-22T06:41:39.587Z,1.90
2022-09-22T06:44:06.875Z,1.88
2022-09-22T06:46:34.296Z,1.77
2022-09-22T06:49:00.930Z,2.00
2022-09-22T06:51:30.331Z,2.10
2022-09-22T06:53:56.871Z,2.10
2022-09-22T06:56:25.962Z,2.50
2022-09-22T06:59:09.554Z,3.20
2022-09-22T07:01:37.432Z,1.88
2022-09-22T07:04:04.618Z,1.93
2022-09-22T07:06:31.508Z,1.95
2022-09-22T07:08:57.971Z,2.15
2022-09-22T07:11:24.625Z,1.90
2022-09-22T07:13:53.325Z,2.45
2022-09-22T07:16:22.511Z,2.20
2022-09-22T07:18:54.485Z,2.00
2022-09-22T07:21:27.463Z,2.20
2022-09-22T07:23:55.401Z,2.30
2022-09-22T07:26:26.524Z,2.22
2022-09-22T07:28:53.867Z,2.20
2022-09-22T07:31:26.307Z,2.42
2022-09-22T07:33:55.686Z,2.13
2022-09-22T07:36:25.980Z,2.22
2022-09-22T07:38:54.717Z,10.25
2022-09-22T07:41:23.359Z,2.40
2022-09-22T07:43:56.230Z,2.67
2022-09-22T07:46:23.421Z,2.22
2022-09-22T07:48:49.863Z,3.63
2022-09-22T07:51:19.695Z,2.40
2022-09-22T07:53:50.202Z,2.60
2022-09-22T07:56:20.213Z,2.53
2022-09-22T07:58:51.818Z,2.70
2022-09-22T08:01:22.923Z,2.40
2022-09-22T08:03:50.693Z,2.42
2022-09-22T08:06:20.088Z,2.53
2022-09-22T08:08:53.559Z,2.47
2022-09-22T08:11:22.526Z,2.38
2022-09-22T08:13:57.108Z,2.40
2022-09-22T08:16:28.138Z,2.25
2022-09-22T08:18:59.089Z,2.37
2022-09-22T08:21:27.381Z,2.42
2022-09-22T08:23:54.382Z,2.00
2022-09-22T08:26:22.028Z,4.68
2022-09-22T08:28:56.030Z,2.95
2022-09-22T08:31:24.692Z,2.27
2022-09-22T08:33:52.134Z,2.22
2022-09-22T08:36:19.207Z,2.30
2022-09-22T08:38:49.561Z,2.20
2022-09-22T08:41:24.597Z,2.10
2022-09-22T08:43:58.167Z,2.10
2022-09-22T08:46:37.034Z,2.13
2022-09-22T08:49:45.652Z,1.88
2022-09-22T08:52:24.398Z,2.15
2022-09-22T08:54:51.446Z,1.95
2022-09-22T08:57:36.365Z,2.10
2022-09-22T09:00:16.671Z,1.90
2022-09-22T09:03:14.083Z,1.92
2022-09-22T09:06:00.183Z,2.17
2022-09-22T09:08:39.235Z,2.00
2022-09-22T09:11:14.688Z,2.20
2022-09-22T09:14:25.513Z,3.42
2022-09-22T09:17:11.447Z,2.10
2022-09-22T09:19:43.963Z,1.70
2022-09-22T09:22:22.818Z,1.60
2022-09-22T09:27:53.038Z,1.60
2022-09-22T09:30:21.518Z,1.40
2022-09-22T09:32:52.898Z,1.17
2022-09-22T09:35:44.127Z,1.40
2022-09-22T09:38:14.693Z,1.10
2022-09-22T09:40:41.850Z,1.08
2022-09-22T09:43:09.049Z,1.08
2022-09-22T09:45:56.432Z,1.20
2022-09-22T09:48:58.475Z,1.50
2022-09-22T09:51:24.913Z,1.13
2022-09-22T09:53:55.236Z,1.20
2022-09-22T09:56:28.334Z,1.10
2022-09-22T09:59:31.030Z,1.20
2022-09-22T10:01:57.636Z,1.25
2022-09-22T10:04:26.803Z,1.00
2022-09-22T10:06:53.258Z,1.10
2022-09-22T10:09:25.268Z,1.10
2022-09-22T10:12:02.563Z,1.23
2022-09-22T10:14:34.552Z,1.30
2022-09-22T10:17:01.167Z,1.30
2022-09-22T10:19:30.072Z,1.10
2022-09-22T10:22:28.450Z,5.00
2022-09-22T10:25:00.706Z,1.80
2022-09-22T10:27:30.541Z,1.60
2022-09-22T10:30:12.495Z,1.10
2022-09-22T10:32:40.013Z,1.13
2022-09-22T10:35:28.565Z,1.10
2022-09-22T10:38:09.964Z,1.00
2022-09-22T10:40:39.771Z,1.10
2022-09-22T10:43:18.988Z,1.33
2022-09-22T10:46:08.716Z,1.67
2022-09-22T10:48:44.777Z,1.10
2022-09-22T10:51:21.650Z,1.20
2022-09-22T10:54:08.245Z,1.40
2022-09-22T10:56:42.576Z,1.30
2022-09-22T10:59:11.981Z,1.10
2022-09-22T11:01:44.211Z,1.08
2022-09-22T11:04:41.159Z,1.27
2022-09-22T11:07:33.981Z,1.50
2022-09-22T11:10:35.969Z,1.50
2022-09-22T11:13:18.353Z,1.10
2022-09-22T11:16:08.006Z,1.00
2022-09-22T11:18:46.548Z,1.23
2022-09-22T11:21:24.991Z,1.23
2022-09-22T11:24:23.780Z,1.10
2022-09-22T11:26:59.195Z,1.10
2022-09-22T11:29:45.262Z,1.17
2022-09-22T11:32:37.045Z,0.90
2022-09-22T11:35:25.184Z,1.10
2022-09-22T11:38:16.390Z,1.10
2022-09-22T11:40:52.210Z,1.35
2022-09-22T11:43:21.806Z,1.20
2022-09-22T11:46:09.234Z,0.95
2022-09-22T11:48:56.893Z,0.90
2022-09-22T11:51:32.556Z,0.93
2022-09-22T11:54:37.223Z,1.00
2022-09-22T11:57:08.937Z,0.98
2022-09-22T11:59:50.564Z,1.02
2022-09-22T12:02:39.309Z,1.08
2022-09-22T12:05:14.162Z,1.10
2022-09-22T12:07:49.380Z,1.00
2022-09-22T12:10:22.880Z,0.90
2022-09-22T12:12:51.713Z,0.98
2022-09-22T12:15:29.366Z,1.00
2022-09-22T12:18:16.458Z,1.20
2022-09-22T12:20:58.549Z,1.00
2022-09-22T12:23:38.738Z,1.00
2022-09-22T12:26:24.867Z,1.00
2022-09-22T12:28:51.883Z,1.10
2022-09-22T12:31:20.203Z,1.20
2022-09-22T12:33:56.426Z,1.05
2022-09-22T12:36:36.179Z,1.10
2022-09-22T12:39:09.209Z,1.10
2022-09-22T12:41:47.961Z,1.20
2022-09-22T12:44:43.839Z,1.00
2022-09-22T12:47:35.880Z,0.93
2022-09-22T12:50:26.831Z,1.02
2022-09-22T12:52:53.738Z,1.17
2022-09-22T12:55:27.896Z,1.00
2022-09-22T12:57:59.351Z,1.00
2022-09-22T13:00:35.169Z,1.25
2022-09-22T13:03:24.559Z,1.25
2022-09-22T13:05:56.038Z,1.20
2022-09-22T13:08:23.643Z,1.20
2022-09-22T13:10:56.548Z,1.33
2022-09-22T13:13:41.094Z,1.10
2022-09-22T13:16:16.686Z,0.98
2022-09-22T13:19:01.244Z,1.30
2022-09-22T13:21:30.487Z,1.20
2022-09-22T13:24:02.692Z,1.20
2022-09-22T13:26:37.751Z,1.00
2022-09-22T13:29:15.296Z,1.30
2022-09-22T13:31:52.875Z,2.65
2022-09-22T13:34:35.710Z,1.20
2022-09-22T13:37:16.765Z,4.73
2022-09-22T13:39:47.729Z,1.50
2022-09-22T13:42:25.448Z,1.40
2022-09-22T13:45:07.651Z,1.20
2022-09-22T13:47:35.323Z,1.17
2022-09-22T13:50:09.023Z,1.00
2022-09-22T13:52:39.189Z,1.10
2022-09-22T13:55:19.647Z,1.02
2022-09-22T13:57:47.330Z,1.15
2022-09-22T14:01:01.365Z,1.10
2022-09-22T14:03:27.398Z,1.10
2022-09-22T14:05:54.373Z,1.25
2022-09-22T14:08:30.015Z,1.10
2022-09-22T14:10:58.035Z,1.25
2022-09-22T14:13:58.411Z,1.20
2022-09-22T14:16:32.653Z,1.30
2022-09-22T14:19:03.674Z,1.00
2022-09-22T14:21:42.283Z,1.48
2022-09-22T14:24:13.392Z,1.10
2022-09-22T14:26:44.552Z,1.40
2022-09-22T14:29:18.393Z,1.17
2022-09-22T14:31:48.517Z,1.45
2022-09-22T14:34:25.132Z,1.30
2022-09-22T14:36:53.283Z,1.20
2022-09-22T14:39:31.229Z,1.20
2022-09-22T14:42:06.172Z,1.30
2022-09-22T14:44:50.409Z,1.90
2022-09-22T14:47:30.495Z,1.42
2022-09-22T14:50:25.942Z,1.23
2022-09-22T14:53:01.068Z,1.27
2022-09-22T14:55:34.467Z,1.27
2022-09-22T14:58:07.699Z,1.10
2022-09-22T15:00:54.340Z,1.40
2022-09-22T15:03:28.403Z,1.75
2022-09-22T15:06:05.126Z,1.60
2022-09-22T15:08:31.506Z,1.40
2022-09-22T15:10:59.441Z,1.45
2022-09-22T15:13:42.185Z,1.58
2022-09-22T15:16:37.752Z,1.50
2022-09-22T15:19:05.254Z,1.30
2022-09-22T15:21:37.856Z,1.53
2022-09-22T15:24:05.246Z,1.20
2022-09-22T15:26:35.489Z,1.50
2022-09-22T15:29:02.690Z,1.40
2022-09-22T15:31:29.920Z,1.38
2022-09-22T15:34:00.146Z,1.67
2022-09-22T15:36:30.540Z,1.35
2022-09-22T15:39:16.357Z,2.30
2022-09-22T15:41:42.774Z,1.58
2022-09-22T15:44:09.352Z,1.50
2022-09-22T15:46:37.943Z,1.70
2022-09-22T15:49:10.446Z,4.65
2022-09-22T15:51:36.864Z,1.67
2022-09-22T15:54:03.466Z,1.50
2022-09-22T15:56:30.400Z,1.67
2022-09-22T15:59:01.034Z,1.50
2022-09-22T16:01:29.304Z,1.60
2022-09-22T16:04:00.042Z,1.52
2022-09-22T16:06:27.108Z,1.50
2022-09-22T16:08:55.188Z,1.52
2022-09-22T16:11:28.399Z,1.57
2022-09-22T16:14:01.139Z,1.80
2022-09-22T16:16:28.731Z,2.40
2022-09-22T16:18:56.150Z,2.50
2022-09-22T16:21:29.236Z,1.42
2022-09-22T16:24:01.682Z,1.40
2022-09-22T16:26:31.467Z,1.33
2022-09-22T16:28:58.556Z,1.60
2022-09-22T16:31:25.738Z,1.52
2022-09-22T16:33:54.487Z,1.60
2022-09-22T16:36:22.071Z,1.70
2022-09-22T16:38:49.462Z,1.60
2022-09-22T16:41:27.914Z,1.50
2022-09-22T16:43:55.576Z,1.60
2022-09-22T16:46:29.852Z,1.70
2022-09-22T16:49:00.225Z,1.70
2022-09-22T16:51:28.099Z,1.60
2022-09-22T16:53:54.620Z,1.60
2022-09-22T16:56:29.772Z,1.40
2022-09-22T16:58:56.910Z,2.00
2022-09-22T17:01:24.208Z,1.60
2022-09-22T17:03:52.329Z,2.20
2022-09-22T17:06:24.245Z,2.33
2022-09-22T17:08:56.798Z,1.80
2022-09-22T17:11:34.332Z,2.17
2022-09-22T17:14:04.573Z,1.93
2022-09-22T17:16:37.380Z,1.77
2022-09-22T17:19:06.735Z,1.63
2022-09-22T17:21:35.340Z,1.58
2022-09-22T17:24:03.394Z,1.60
2022-09-22T17:26:50.146Z,1.80
2022-09-22T17:29:18.779Z,1.70
2022-09-22T17:31:49.177Z,1.80
2022-09-22T17:34:16.001Z,1.55
2022-09-22T17:36:42.690Z,1.60
2022-09-22T17:39:10.557Z,1.80
2022-09-22T17:41:45.209Z,1.77
2022-09-22T17:44:11.703Z,1.80
2022-09-22T17:46:58.116Z,1.60
2022-09-22T17:49:42.977Z,1.90
2022-09-22T17:52:29.251Z,1.70
2022-09-22T17:55:09.586Z,2.33
2022-09-22T17:57:41.038Z,2.75
2022-09-22T18:00:11.062Z,2.50
2022-09-22T18:02:38.686Z,2.67
2022-09-22T18:05:07.247Z,4.40
2022-09-22T18:07:35.024Z,4.00
2022-09-22T18:10:02.504Z,3.70
2022-09-22T18:12:29.006Z,3.83
2022-09-22T18:14:55.968Z,4.20
2022-09-22T18:17:25.949Z,3.67
2022-09-22T18:19:56.760Z,3.75
2022-09-22T18:22:24.703Z,3.60
2022-09-22T18:24:55.387Z,9.05
2022-09-22T18:27:25.489Z,5.05
2022-09-22T18:29:53.434Z,4.50
2022-09-22T18:32:20.298Z,4.40
2022-09-22T18:34:47.946Z,6.25
2022-09-22T18:37:15.644Z,3.90
2022-09-22T18:39:44.671Z,3.00
2022-09-22T18:42:14.927Z,2.90
2022-09-22T18:44:41.695Z,3.90
2022-09-22T18:47:12.952Z,4.10
2022-09-22T18:49:40.552Z,4.00
2022-09-22T18:52:08.076Z,3.38
2022-09-22T18:54:35.257Z,3.60
2022-09-22T18:57:03.401Z,3.20
2022-09-22T18:59:29.815Z,2.72
2022-09-22T19:01:56.622Z,2.88
2022-09-22T19:04:24.730Z,3.00
2022-09-22T19:07:13.868Z,2.73
2022-09-22T19:09:41.243Z,3.40
2022-09-22T19:12:09.680Z,3.20
2022-09-22T19:14:38.696Z,3.15
2022-09-22T19:17:10.744Z,3.17
2022-09-22T19:19:42.385Z,3.40
2022-09-22T19:22:12.269Z,3.58
2022-09-22T19:24:40.333Z,3.55
2022-09-22T19:27:09.076Z,3.10
2022-09-22T19:29:36.005Z,3.38
2022-09-22T19:32:04.390Z,3.30
2022-09-22T19:34:31.366Z,3.33
2022-09-22T19:36:58.261Z,3.88
2022-09-22T19:39:25.332Z,3.30
2022-09-22T19:41:52.513Z,3.38
2022-09-22T19:44:21.193Z,5.80
2022-09-22T19:46:48.425Z,4.07
2022-09-22T19:49:16.172Z,6.15
2022-09-22T19:51:42.796Z,3.70
2022-09-22T19:54:09.642Z,2.95
2022-09-22T19:56:36.472Z,3.40
2022-09-22T19:59:04.557Z,3.28
2022-09-22T20:01:37.758Z,8.70
2022-09-22T20:04:05.296Z,4.60
2022-09-22T20:06:33.208Z,3.83
2022-09-22T20:09:05.286Z,3.40
2022-09-22T20:11:33.805Z,3.53
2022-09-22T20:14:18.571Z,3.45
2022-09-22T20:16:46.801Z,4.15
2022-09-22T20:19:13.671Z,3.58
2022-09-22T20:21:42.348Z,3.47
2022-09-22T20:24:13.311Z,3.70
2022-09-22T20:26:41.447Z,3.70
2022-09-22T20:29:08.463Z,3.90
2022-09-22T20:31:36.161Z,3.78
2022-09-22T20:34:05.483Z,3.70
2022-09-22T20:36:36.613Z,3.65
2022-09-22T20:39:04.043Z,3.70
2022-09-22T20:41:31.007Z,5.90
2022-09-22T20:43:58.329Z,3.70
2022-09-22T20:46:25.188Z,4.93
2022-09-22T20:48:55.244Z,4.35
2022-09-22T20:51:22.709Z,3.72
2022-09-22T20:53:49.166Z,3.80
2022-09-22T20:56:15.740Z,4.07
2022-09-22T20:58:44.114Z,4.50
2022-09-22T21:01:12.886Z,4.05
2022-09-22T21:03:39.617Z,4.43
2022-09-22T21:06:08.730Z,6.18
2022-09-22T21:09:01.366Z,5.00
2022-09-22T21:11:28.734Z,3.87
2022-09-22T21:14:01.939Z,4.80
2022-09-22T21:16:32.753Z,4.15
2022-09-22T21:19:02.482Z,3.70
2022-09-22T21:21:33.248Z,4.20
2022-09-22T21:24:02.870Z,3.97
2022-09-22T21:26:30.961Z,4.55
2022-09-22T21:28:59.330Z,3.83
2022-09-22T21:31:26.479Z,3.72
2022-09-22T21:33:53.397Z,4.10
2022-09-22T21:36:25.087Z,3.80
2022-09-22T21:38:56.942Z,3.67
2022-09-22T21:41:26.101Z,4.18
2022-09-22T21:43:52.855Z,4.10
2022-09-22T21:46:21.823Z,3.60
2022-09-22T21:48:48.275Z,4.20
2022-09-22T21:51:21.395Z,4.47
2022-09-22T21:53:51.706Z,5.47
2022-09-22T21:56:19.536Z,9.77
2022-09-22T21:58:48.936Z,8.43
2022-09-22T22:01:18.552Z,6.40
2022-09-22T22:03:46.470Z,6.70
2022-09-22T22:06:14.261Z,5.82
2022-09-22T22:08:46.689Z,4.68
2022-09-22T22:11:16.474Z,5.63
2022-09-22T22:13:45.161Z,4.97
2022-09-22T22:16:13.551Z,4.80
2022-09-22T22:18:41.567Z,4.47
2022-09-22T22:21:11.234Z,4.35
2022-09-22T22:23:43.391Z,4.30
2022-09-22T22:26:16.334Z,4.77
2022-09-22T22:28:44.360Z,4.50
2022-09-22T22:31:12.521Z,5.57
2022-09-22T22:33:42.225Z,5.15
2022-09-22T22:36:11.520Z,5.22
2022-09-22T22:38:39.056Z,4.23
2022-09-22T22:41:17.113Z,4.05
2022-09-22T22:43:44.297Z,4.18
2022-09-22T22:46:16.591Z,4.30
2022-09-22T22:48:43.888Z,4.20
2022-09-22T22:51:13.679Z,4.40
2022-09-22T22:53:40.974Z,5.57
2022-09-22T22:56:11.589Z,4.95
2022-09-22T22:58:42.648Z,4.60
2022-09-22T23:01:12.128Z,5.10
2022-09-22T23:03:41.176Z,4.60
2022-09-22T23:06:09.548Z,4.43
2022-09-22T23:08:36.335Z,4.57
2022-09-22T23:11:07.585Z,4.40
2022-09-22T23:13:33.982Z,4.20
2022-09-22T23:16:05.274Z,4.30
2022-09-22T23:18:32.537Z,4.30
2022-09-22T23:20:58.907Z,4.50
2022-09-22T23:23:25.316Z,4.93
2022-09-22T23:25:51.721Z,5.97
2022-09-22T23:28:18.095Z,4.90
2022-09-22T23:30:44.562Z,4.75
2022-09-22T23:33:11.244Z,4.85
2022-09-22T23:35:39.309Z,5.45
2022-09-22T23:38:08.934Z,5.53
2022-09-22T23:40:35.643Z,5.10
2022-09-22T23:47:34.195Z,4.78
2022-09-22T23:50:00.570Z,4.53
2022-09-22T23:52:29.931Z,5.90
2022-09-22T23:54:56.354Z,5.57
2022-09-22T23:57:22.761Z,5.18
2022-09-22T23:59:49.142Z,5.60
